Time;durP1;ratioP1;P1;durP2;ratioP2;P2;SDS_P1;SDS_P2;PMS_P1;PMS_P2;Temp;Humidity;BMP_temperature;BMP_pressure;BME280_temperature;BME280_humidity;BME280_pressure;Samples;Min_cycle;Max_cycle;Signal;HPM_P1;HPM_P2
2022/05/28 00:00:17;;;;;;;2.00;1.00;;;12.80;99.90;;;;;;5047371;28;20353;-70
2022/05/28 00:02:45;;;;;;;3.50;1.02;;;12.80;99.90;;;;;;5037740;28;20188;-71
2022/05/28 00:05:11;;;;;;;2.35;1.00;;;12.80;99.90;;;;;;5038085;28;20224;-68
2022/05/28 00:07:40;;;;;;;4.25;1.38;;;12.80;99.90;;;;;;5036434;28;20173;-71
2022/05/28 00:10:09;;;;;;;4.15;1.08;;;12.70;99.90;;;;;;5033280;28;20186;-71
2022/05/28 00:12:35;;;;;;;3.55;1.48;;;12.70;99.90;;;;;;5029809;28;20216;-70
2022/05/28 00:15:00;;;;;;;2.72;1.23;;;12.70;99.90;;;;;;5026953;28;20201;-71
2022/05/28 00:17:29;;;;;;;2.92;1.05;;;12.70;99.90;;;;;;5026183;28;20178;-70
2022/05/28 00:19:54;;;;;;;3.42;1.25;;;12.60;99.90;;;;;;5033525;28;20201;-71
2022/05/28 00:22:20;;;;;;;3.15;1.20;;;12.60;99.90;;;;;;5046106;28;20204;-71
2022/05/28 00:24:48;;;;;;;5.20;1.45;;;12.60;99.90;;;;;;5040045;28;20201;-70
2022/05/28 00:27:14;;;;;;;4.93;1.45;;;12.60;99.90;;;;;;5034877;28;20288;-71
2022/05/28 00:29:40;;;;;;;3.72;1.40;;;12.60;99.90;;;;;;5026618;28;20269;-69
2022/05/28 00:32:10;;;;;;;5.82;1.55;;;12.60;99.90;;;;;;5043644;28;20197;-74
2022/05/28 00:34:40;;;;;;;5.82;1.33;;;12.60;99.90;;;;;;5037960;28;20212;-73
2022/05/28 00:37:07;;;;;;;3.42;1.15;;;12.50;99.90;;;;;;5034533;28;20522;-73
2022/05/28 00:39:33;;;;;;;3.20;1.20;;;12.50;99.90;;;;;;5020088;28;20178;-73
2022/05/28 00:42:01;;;;;;;4.80;1.50;;;12.50;99.90;;;;;;5036776;28;20258;-73
2022/05/28 00:44:26;;;;;;;2.05;1.05;;;12.40;99.90;;;;;;5025519;28;20209;-73
2022/05/28 00:46:55;;;;;;;2.92;1.30;;;12.40;99.90;;;;;;5020874;28;20170;-74
2022/05/28 00:49:26;;;;;;;3.92;1.48;;;12.40;99.90;;;;;;5044146;28;20201;-74
2022/05/28 00:51:54;;;;;;;3.28;1.10;;;12.40;99.90;;;;;;5036963;28;20264;-75
2022/05/28 00:54:22;;;;;;;3.08;1.30;;;12.40;99.90;;;;;;5036217;28;20177;-73
2022/05/28 00:56:50;;;;;;;4.20;1.50;;;12.30;99.90;;;;;;5033607;28;20178;-72
2022/05/28 00:59:21;;;;;;;4.05;1.27;;;12.30;99.90;;;;;;5030407;28;20177;-73
2022/05/28 01:01:46;;;;;;;2.75;1.30;;;12.30;99.90;;;;;;5041032;28;20249;-73
2022/05/28 01:04:18;;;;;;;3.28;1.40;;;12.20;99.90;;;;;;5031701;28;20201;-75
2022/05/28 01:06:52;;;;;;;2.85;1.10;;;12.20;99.90;;;;;;5030806;28;20170;-74
2022/05/28 01:09:45;;;;;;;2.75;1.40;;;12.20;99.90;;;;;;5038872;28;20189;-73
2022/05/28 01:12:26;;;;;;;3.20;1.30;;;12.20;99.90;;;;;;5040075;28;20265;-72
2022/05/28 01:15:10;;;;;;;4.75;1.50;;;12.20;99.90;;;;;;5041211;28;20197;-73
2022/05/28 01:17:50;;;;;;;3.97;1.38;;;12.10;99.90;;;;;;5038451;28;20185;-74
2022/05/28 01:20:34;;;;;;;3.42;1.30;;;12.10;99.90;;;;;;5035166;28;20181;-75
2022/05/28 01:23:36;;;;;;;4.25;1.52;;;12.10;99.90;;;;;;5038475;28;20209;-76
2022/05/28 01:26:23;;;;;;;4.25;1.45;;;12.10;99.90;;;;;;5045031;28;20180;-74
2022/05/28 01:28:55;;;;;;;6.43;1.55;;;12.10;99.90;;;;;;5037380;28;20166;-74
2022/05/28 01:31:26;;;;;;;4.30;1.40;;;12.00;99.90;;;;;;5040745;28;20285;-74
2022/05/28 01:33:53;;;;;;;4.15;1.30;;;12.00;99.90;;;;;;5048507;28;20192;-74
2022/05/28 01:36:19;;;;;;;2.50;1.13;;;12.00;99.90;;;;;;5040568;28;20507;-74
2022/05/28 01:38:46;;;;;;;5.75;1.35;;;12.00;99.90;;;;;;5034523;28;20201;-71
2022/05/28 01:41:13;;;;;;;4.40;1.40;;;11.90;99.90;;;;;;5040733;28;20181;-74
2022/05/28 01:43:42;;;;;;;4.18;1.50;;;11.90;99.90;;;;;;5034721;28;20194;-74
2022/05/28 01:46:13;;;;;;;4.10;1.50;;;11.90;99.90;;;;;;5033344;28;20208;-72
2022/05/28 01:48:42;;;;;;;4.88;1.33;;;11.90;99.90;;;;;;5040727;28;20206;-72
2022/05/28 01:51:09;;;;;;;2.92;1.20;;;12.00;99.90;;;;;;5031997;28;20177;-72
2022/05/28 01:56:22;;;;;;;3.70;1.17;;;11.80;99.90;;;;;;5036696;28;20185;-74
2022/05/28 01:58:51;;;;;;;3.20;1.20;;;11.80;99.90;;;;;;5048671;28;20184;-66
2022/05/28 02:01:17;;;;;;;5.18;1.38;;;11.90;99.90;;;;;;5028227;28;20251;-73
2022/05/28 02:03:48;;;;;;;5.13;1.37;;;11.90;99.90;;;;;;5046305;28;20205;-72
2022/05/28 02:06:17;;;;;;;2.35;1.17;;;11.80;99.90;;;;;;5021048;28;20200;-73
2022/05/28 02:08:49;;;;;;;3.77;1.10;;;11.80;99.90;;;;;;5022098;28;20185;-72
2022/05/28 02:11:28;;;;;;;3.45;1.30;;;11.80;99.90;;;;;;5024345;28;20177;-74
2022/05/28 02:14:31;;;;;;;2.70;1.10;;;11.80;99.90;;;;;;5038440;28;20227;-73
2022/05/28 02:17:14;;;;;;;3.70;1.30;;;11.80;99.90;;;;;;5045510;28;20177;-67
2022/05/28 02:19:39;;;;;;;5.60;1.23;;;11.80;99.90;;;;;;5050517;28;20178;-74
2022/05/28 02:22:17;;;;;;;3.85;1.15;;;11.70;99.90;;;;;;5041845;28;20188;-71
2022/05/28 02:24:49;;;;;;;2.73;1.10;;;11.70;99.90;;;;;;5045245;28;20201;-75
2022/05/28 02:27:19;;;;;;;5.88;1.48;;;11.70;99.90;;;;;;5030944;28;20200;-74
2022/05/28 02:29:50;;;;;;;5.53;1.30;;;11.70;99.90;;;;;;5034480;28;20391;-73
2022/05/28 02:32:19;;;;;;;3.17;1.20;;;11.70;99.90;;;;;;5033314;28;20181;-72
2022/05/28 02:34:50;;;;;;;3.33;1.20;;;11.70;99.90;;;;;;5042969;28;20345;-75
2022/05/28 02:37:20;;;;;;;4.18;1.23;;;11.60;99.90;;;;;;5038872;28;20311;-74
2022/05/28 02:39:49;;;;;;;4.30;1.13;;;11.60;99.90;;;;;;5042552;28;20173;-72
2022/05/28 02:42:17;;;;;;;3.75;1.08;;;11.60;99.90;;;;;;5047896;28;20202;-74
2022/05/28 02:44:42;;;;;;;4.93;1.33;;;11.60;99.90;;;;;;5039964;28;20201;-74
2022/05/28 02:47:13;;;;;;;4.87;1.60;;;11.60;99.90;;;;;;5039846;28;20180;-74
2022/05/28 02:49:38;;;;;;;5.20;1.50;;;11.60;99.90;;;;;;5034906;28;20268;-75
2022/05/28 02:52:08;;;;;;;3.78;1.17;;;11.60;99.90;;;;;;5030577;28;20193;-74
2022/05/28 02:54:33;;;;;;;3.03;1.10;;;11.60;99.90;;;;;;5031823;28;20192;-72
2022/05/28 02:57:01;;;;;;;5.40;1.65;;;11.60;99.90;;;;;;5047446;28;20198;-73
2022/05/28 02:59:29;;;;;;;2.63;1.07;;;11.70;99.90;;;;;;5056763;28;20185;-74
2022/05/28 03:01:54;;;;;;;3.60;1.40;;;11.70;99.90;;;;;;5036198;28;20292;-74
2022/05/28 03:04:20;;;;;;;4.43;1.50;;;11.70;99.90;;;;;;5037875;28;20308;-74
2022/05/28 03:06:46;;;;;;;5.47;1.40;;;11.70;99.90;;;;;;5032950;28;20185;-73
2022/05/28 03:09:15;;;;;;;4.50;1.45;;;11.70;99.90;;;;;;5039333;28;20181;-74
2022/05/28 03:11:43;;;;;;;3.70;1.20;;;11.80;99.90;;;;;;5043392;28;20201;-72
2022/05/28 03:14:09;;;;;;;5.75;1.30;;;11.90;99.90;;;;;;5041734;28;20177;-74
2022/05/28 03:16:34;;;;;;;2.95;1.20;;;11.80;99.90;;;;;;5046497;28;20277;-75
2022/05/28 03:19:02;;;;;;;2.53;1.10;;;11.90;99.90;;;;;;5042930;28;20280;-74
2022/05/28 03:21:31;;;;;;;3.10;1.10;;;11.90;99.90;;;;;;5038492;28;20223;-74
2022/05/28 03:23:57;;;;;;;2.72;1.30;;;11.90;99.90;;;;;;5037539;28;20205;-74
2022/05/28 03:26:29;;;;;;;6.47;1.10;;;12.00;99.90;;;;;;5026965;28;20192;-73
2022/05/28 03:28:56;;;;;;;3.60;1.20;;;12.00;99.90;;;;;;5036655;28;20188;-74
2022/05/28 03:31:23;;;;;;;3.50;1.40;;;12.10;99.90;;;;;;5041833;28;20190;-74
2022/05/28 03:33:50;;;;;;;4.55;1.60;;;12.10;99.90;;;;;;5039118;28;20246;-74
2022/05/28 03:36:21;;;;;;;5.65;1.48;;;12.10;99.90;;;;;;5032233;28;20192;-74
2022/05/28 03:38:47;;;;;;;3.13;1.60;;;12.20;99.90;;;;;;5050641;28;20268;-73
2022/05/28 03:41:15;;;;;;;4.43;1.63;;;12.20;99.90;;;;;;5039365;28;20253;-74
2022/05/28 03:43:43;;;;;;;3.63;1.33;;;12.30;99.90;;;;;;5044082;28;20263;-74
2022/05/28 03:46:27;;;;;;;3.72;1.45;;;12.30;99.90;;;;;;5028221;28;20281;-74
2022/05/28 03:48:57;;;;;;;4.45;2.00;;;12.30;99.90;;;;;;5049663;28;20253;-74
2022/05/28 03:51:23;;;;;;;4.90;1.75;;;12.30;99.90;;;;;;5019660;28;20178;-74
2022/05/28 03:53:51;;;;;;;4.50;1.83;;;12.30;99.90;;;;;;5036171;28;20208;-74
2022/05/28 03:56:19;;;;;;;4.35;1.38;;;12.30;99.90;;;;;;5043357;28;20510;-73
2022/05/28 03:58:44;;;;;;;3.83;1.33;;;12.30;99.90;;;;;;5038788;28;20178;-74
2022/05/28 04:01:14;;;;;;;5.50;1.73;;;12.30;99.90;;;;;;5037077;28;20227;-74
2022/05/28 04:03:39;;;;;;;4.30;1.40;;;12.30;99.90;;;;;;5030509;28;20198;-74
2022/05/28 04:06:05;;;;;;;6.07;2.40;;;12.20;99.90;;;;;;5039168;28;20204;-75
2022/05/28 04:08:31;;;;;;;4.28;1.45;;;12.30;99.90;;;;;;5041750;28;20216;-73
2022/05/28 04:11:00;;;;;;;5.18;1.70;;;12.30;99.90;;;;;;5040791;28;20203;-74
2022/05/28 04:13:26;;;;;;;5.22;1.75;;;12.20;99.90;;;;;;5054409;28;20296;-75
2022/05/28 04:15:52;;;;;;;6.80;1.75;;;12.30;99.90;;;;;;5038591;28;20256;-74
2022/05/28 04:18:20;;;;;;;2.72;1.30;;;12.20;99.90;;;;;;5038180;28;20268;-72
2022/05/28 04:20:49;;;;;;;3.95;1.63;;;12.30;99.90;;;;;;5044357;28;20213;-74
2022/05/28 04:23:18;;;;;;;3.38;1.50;;;12.30;99.90;;;;;;5032349;28;20200;-74
2022/05/28 04:25:43;;;;;;;3.50;1.67;;;12.30;99.90;;;;;;5024008;28;20189;-74
2022/05/28 04:28:10;;;;;;;5.25;1.60;;;12.40;99.90;;;;;;5041132;28;20268;-73
2022/05/28 04:30:38;;;;;;;3.90;1.45;;;12.40;99.90;;;;;;5048848;28;20188;-74
2022/05/28 04:33:03;;;;;;;6.00;1.85;;;12.40;99.90;;;;;;5032914;28;20177;-74
2022/05/28 04:35:32;;;;;;;4.18;1.58;;;12.40;99.90;;;;;;5040654;28;20272;-72
2022/05/28 04:37:57;;;;;;;5.65;2.50;;;12.40;99.90;;;;;;5040072;28;20253;-74
2022/05/28 04:40:25;;;;;;;4.15;1.73;;;12.50;99.90;;;;;;5035428;28;20266;-73
2022/05/28 04:42:53;;;;;;;5.38;1.80;;;12.50;99.90;;;;;;5033061;28;20232;-73
2022/05/28 04:45:19;;;;;;;4.57;1.48;;;12.60;99.90;;;;;;5027867;28;20184;-73
2022/05/28 04:47:45;;;;;;;6.22;1.60;;;12.60;99.90;;;;;;5037644;28;20177;-73
2022/05/28 04:50:11;;;;;;;5.78;1.55;;;12.60;99.90;;;;;;5028037;28;20272;-74
2022/05/28 04:52:38;;;;;;;8.40;2.22;;;12.70;99.90;;;;;;5030357;28;20179;-74
2022/05/28 04:55:06;;;;;;;4.97;1.85;;;12.70;99.90;;;;;;5025085;28;20178;-74
2022/05/28 04:57:32;;;;;;;4.88;1.60;;;12.80;99.90;;;;;;5033761;28;20201;-75
2022/05/28 04:59:57;;;;;;;5.25;1.83;;;12.80;99.90;;;;;;5037947;28;20192;-76
2022/05/28 05:02:23;;;;;;;3.17;1.52;;;12.90;99.90;;;;;;5041138;28;20230;-74
2022/05/28 05:04:55;;;;;;;4.93;1.70;;;13.00;99.90;;;;;;5035987;28;20209;-74
2022/05/28 05:07:21;;;;;;;4.93;1.80;;;13.10;99.90;;;;;;5027470;28;20180;-73
2022/05/28 05:09:47;;;;;;;4.05;1.45;;;13.10;99.90;;;;;;5040431;28;20252;-74
2022/05/28 05:12:12;;;;;;;6.97;1.73;;;13.20;99.90;;;;;;5031550;28;20193;-73
2022/05/28 05:14:40;;;;;;;7.55;1.80;;;13.30;99.90;;;;;;5029723;28;20196;-74
2022/05/28 05:17:06;;;;;;;8.57;1.80;;;13.30;99.90;;;;;;5026262;28;20204;-75
2022/05/28 05:19:33;;;;;;;5.32;1.70;;;13.40;99.90;;;;;;5032059;28;20201;-74
2022/05/28 05:21:59;;;;;;;6.75;2.28;;;13.50;99.90;;;;;;5037617;28;20185;-77
2022/05/28 05:24:27;;;;;;;5.32;1.90;;;13.50;99.90;;;;;;5033943;28;20205;-73
2022/05/28 05:26:58;;;;;;;5.55;1.92;;;13.60;99.90;;;;;;5027240;28;20226;-75
2022/05/28 05:29:23;;;;;;;7.18;1.88;;;13.60;99.90;;;;;;5025233;28;20174;-74
2022/05/28 05:31:49;;;;;;;6.78;2.47;;;13.70;99.90;;;;;;5039610;28;20188;-74
2022/05/28 05:34:16;;;;;;;6.00;2.03;;;13.80;99.90;;;;;;5033867;28;20182;-74
2022/05/28 05:36:42;;;;;;;6.75;2.08;;;13.80;99.90;;;;;;5032823;28;20187;-74
2022/05/28 05:39:08;;;;;;;7.45;2.20;;;13.90;99.90;;;;;;5033533;28;20181;-74
2022/05/28 05:41:38;;;;;;;5.68;2.20;;;13.90;99.90;;;;;;5026299;28;20186;-74
2022/05/28 05:44:04;;;;;;;7.50;2.20;;;13.90;99.90;;;;;;5025113;28;20226;-74
2022/05/28 05:46:32;;;;;;;4.72;1.63;;;13.90;99.90;;;;;;5032648;28;20198;-75
2022/05/28 05:48:58;;;;;;;5.50;1.75;;;13.90;99.90;;;;;;5036834;28;20172;-73
2022/05/28 05:51:28;;;;;;;9.30;2.05;;;14.00;99.90;;;;;;5040372;28;20192;-72
2022/05/28 05:53:54;;;;;;;5.40;1.88;;;14.00;99.90;;;;;;5033812;28;20174;-75
2022/05/28 05:56:22;;;;;;;7.68;2.08;;;14.00;99.90;;;;;;5017346;28;20209;-74
2022/05/28 05:58:48;;;;;;;5.30;1.92;;;14.00;99.90;;;;;;5017403;28;20182;-74
2022/05/28 06:01:13;;;;;;;6.55;1.98;;;14.00;99.90;;;;;;5035626;28;20208;-74
2022/05/28 06:03:44;;;;;;;6.95;2.17;;;14.00;99.90;;;;;;5040687;28;20288;-74
2022/05/28 06:06:15;;;;;;;5.57;1.88;;;14.10;99.90;;;;;;5037312;28;20185;-76
2022/05/28 06:08:41;;;;;;;7.05;2.17;;;14.10;99.90;;;;;;5037756;28;20184;-74
2022/05/28 06:11:08;;;;;;;5.78;1.88;;;14.10;99.90;;;;;;5041104;28;20201;-74
2022/05/28 06:13:37;;;;;;;7.15;2.10;;;14.20;99.90;;;;;;5040946;28;20234;-75
2022/05/28 06:16:03;;;;;;;4.28;1.90;;;14.20;99.90;;;;;;5040382;28;20276;-74
2022/05/28 06:18:30;;;;;;;6.70;2.00;;;14.20;99.90;;;;;;5040661;28;20228;-74
2022/05/28 06:20:59;;;;;;;9.32;2.33;;;14.30;99.90;;;;;;5052292;28;20185;-75
2022/05/28 06:23:28;;;;;;;6.32;2.22;;;14.30;99.90;;;;;;5057035;28;20201;-75
2022/05/28 06:25:58;;;;;;;6.38;2.17;;;14.30;99.90;;;;;;5057387;28;20280;-74
2022/05/28 06:28:26;;;;;;;9.10;2.20;;;14.40;99.90;;;;;;5057440;28;20157;-76
2022/05/28 06:30:52;;;;;;;7.40;2.20;;;14.40;99.90;;;;;;5042057;28;20433;-74
2022/05/28 06:33:18;;;;;;;9.35;2.70;;;14.50;99.90;;;;;;5040555;28;20189;-76
2022/05/28 06:35:44;;;;;;;5.72;2.13;;;14.50;99.90;;;;;;5046460;28;20188;-75
2022/05/28 06:38:10;;;;;;;5.32;1.65;;;14.50;99.90;;;;;;5036669;28;20480;-74
2022/05/28 06:40:36;;;;;;;7.25;2.00;;;14.50;99.90;;;;;;5039771;28;20247;-75
2022/05/28 06:43:03;;;;;;;8.43;1.88;;;14.50;99.90;;;;;;5040033;28;20181;-74
2022/05/28 06:45:31;;;;;;;5.00;1.60;;;14.50;99.90;;;;;;5036978;28;20185;-75
2022/05/28 06:47:57;;;;;;;2.60;1.40;;;14.60;99.90;;;;;;5040918;28;20202;-75
2022/05/28 06:53:08;;;;;;;6.05;1.77;;;14.60;99.90;;;;;;5037904;28;20296;-74
2022/05/28 06:55:35;;;;;;;6.78;1.80;;;14.70;99.90;;;;;;5020053;28;20205;-75
2022/05/28 06:58:06;;;;;;;4.43;1.73;;;14.80;99.90;;;;;;5022505;28;20174;-76
2022/05/28 07:00:34;;;;;;;7.80;2.10;;;14.80;99.90;;;;;;5036785;28;20189;-75
2022/05/28 07:02:59;;;;;;;4.30;1.85;;;14.80;99.90;;;;;;5039826;28;20193;-74
2022/05/28 07:05:28;;;;;;;4.35;1.70;;;14.90;99.90;;;;;;5036940;28;20224;-74
2022/05/28 07:07:54;;;;;;;4.50;1.67;;;14.90;99.90;;;;;;5056590;28;20204;-74
2022/05/28 07:10:23;;;;;;;5.60;1.75;;;14.90;99.90;;;;;;5043156;28;20206;-74
2022/05/28 07:12:48;;;;;;;4.43;1.60;;;14.90;99.90;;;;;;5023787;28;20180;-75
2022/05/28 07:15:14;;;;;;;5.68;1.55;;;14.90;99.90;;;;;;5040224;28;20174;-76
2022/05/28 07:17:43;;;;;;;3.80;1.38;;;15.00;99.90;;;;;;5026947;28;20201;-75
2022/05/28 07:20:12;;;;;;;6.55;1.30;;;15.00;99.90;;;;;;5019135;28;20174;-75
2022/05/28 07:22:38;;;;;;;5.03;1.63;;;15.00;99.90;;;;;;5020007;28;20269;-75
2022/05/28 07:25:07;;;;;;;4.07;1.52;;;15.10;99.90;;;;;;5034730;28;20208;-75
2022/05/28 07:27:33;;;;;;;3.63;1.35;;;15.10;99.90;;;;;;5038955;28;20256;-73
2022/05/28 07:29:59;;;;;;;2.50;1.30;;;15.20;99.90;;;;;;5056021;28;20197;-75
2022/05/28 07:32:29;;;;;;;4.47;1.48;;;15.20;99.90;;;;;;5055912;28;20169;-75
2022/05/28 07:34:57;;;;;;;2.85;1.23;;;15.30;99.90;;;;;;5046562;28;20193;-74
2022/05/28 07:37:24;;;;;;;5.25;1.10;;;15.30;99.90;;;;;;5019591;28;20225;-74
2022/05/28 07:39:50;;;;;;;5.25;2.17;;;15.30;99.90;;;;;;5036461;28;20196;-74
2022/05/28 07:42:18;;;;;;;4.60;2.20;;;15.40;99.90;;;;;;5039331;28;20216;-74
2022/05/28 07:44:43;;;;;;;4.95;1.70;;;15.50;99.90;;;;;;5035114;28;20216;-75
2022/05/28 07:47:09;;;;;;;6.05;1.85;;;15.60;99.90;;;;;;5023103;28;20245;-73
2022/05/28 07:49:36;;;;;;;3.13;1.42;;;15.60;99.90;;;;;;5028081;28;20169;-74
2022/05/28 07:52:02;;;;;;;3.17;1.63;;;15.70;99.90;;;;;;5043486;28;20186;-70
2022/05/28 07:54:30;;;;;;;4.30;1.67;;;15.80;99.90;;;;;;5073542;28;20197;-71
2022/05/28 07:56:56;;;;;;;3.30;1.00;;;15.90;99.90;;;;;;5039583;28;20189;-76
2022/05/28 07:59:22;;;;;;;4.78;1.38;;;16.00;99.90;;;;;;5039165;28;20184;-76
2022/05/28 08:01:48;;;;;;;3.22;1.23;;;16.00;99.90;;;;;;5055643;28;20188;-77
2022/05/28 08:04:15;;;;;;;4.05;1.25;;;16.10;99.90;;;;;;5054901;28;20274;-75
2022/05/28 08:06:44;;;;;;;4.35;1.30;;;16.20;99.90;;;;;;5038768;28;20173;-76
2022/05/28 08:09:13;;;;;;;4.40;1.30;;;16.10;99.90;;;;;;5056287;28;20181;-75
2022/05/28 08:11:39;;;;;;;3.50;1.27;;;16.10;99.90;;;;;;5035468;28;20201;-75
2022/05/28 08:14:05;;;;;;;5.03;1.40;;;16.10;99.90;;;;;;5035535;28;20174;-76
2022/05/28 08:16:33;;;;;;;4.18;1.40;;;16.10;99.90;;;;;;5035439;28;20185;-75
2022/05/28 08:19:02;;;;;;;3.75;1.48;;;16.10;99.90;;;;;;5038139;28;20181;-76
2022/05/28 08:24:11;;;;;;;4.10;1.30;;;16.20;99.90;;;;;;5055128;28;20297;-74
2022/05/28 08:26:42;;;;;;;2.30;1.20;;;16.20;99.90;;;;;;5038588;28;20428;-75
2022/05/28 08:29:11;;;;;;;1.95;1.10;;;16.10;99.90;;;;;;5038473;28;20177;-74
2022/05/28 08:31:36;;;;;;;3.63;1.20;;;16.10;99.90;;;;;;5030134;28;20236;-75
2022/05/28 08:34:05;;;;;;;2.50;1.05;;;16.20;99.90;;;;;;5018566;28;20210;-76
2022/05/28 08:36:33;;;;;;;2.95;1.27;;;16.20;99.90;;;;;;5018550;28;20251;-74
2022/05/28 08:39:00;;;;;;;4.88;1.40;;;16.20;99.90;;;;;;5037900;28;20201;-75
2022/05/28 08:41:36;;;;;;;5.32;1.85;;;16.10;99.90;;;;;;5055229;28;20201;-70
2022/05/28 08:44:27;;;;;;;3.45;1.30;;;16.20;99.90;;;;;;5023608;28;20197;-70
2022/05/28 08:47:03;;;;;;;3.90;1.08;;;16.20;99.90;;;;;;5018277;28;20174;-70
2022/05/28 08:49:30;;;;;;;5.60;1.45;;;16.30;99.90;;;;;;5018436;28;20174;-71
2022/05/28 08:52:07;;;;;;;2.05;0.82;;;16.30;99.90;;;;;;5018143;28;20198;-71
2022/05/28 08:54:58;;;;;;;3.53;1.30;;;16.30;99.90;;;;;;5038042;28;20184;-71
2022/05/28 08:57:46;;;;;;;4.07;1.25;;;16.40;99.90;;;;;;5037811;28;20166;-70
2022/05/28 09:00:38;;;;;;;3.60;1.17;;;16.40;99.90;;;;;;5037646;28;20466;-71
2022/05/28 09:03:13;;;;;;;1.90;1.05;;;16.50;99.90;;;;;;5035021;28;20250;-71
2022/05/28 09:05:51;;;;;;;1.63;0.80;;;16.60;99.90;;;;;;5037659;28;20184;-72
2022/05/28 09:08:49;;;;;;;4.15;1.30;;;16.60;99.90;;;;;;5037567;28;20252;-71
2022/05/28 09:11:21;;;;;;;3.65;1.10;;;16.60;99.90;;;;;;5039713;28;20216;-71
2022/05/28 09:13:52;;;;;;;4.30;1.27;;;16.70;99.90;;;;;;5037563;28;20498;-71
2022/05/28 09:16:36;;;;;;;3.47;1.17;;;16.70;99.90;;;;;;5036858;28;20187;-71
2022/05/28 09:19:08;;;;;;;3.22;1.00;;;16.80;99.90;;;;;;5034618;28;20173;-71
2022/05/28 09:21:38;;;;;;;3.20;1.10;;;16.80;99.90;;;;;;5024976;28;20220;-71
2022/05/28 09:24:09;;;;;;;3.25;1.20;;;16.90;99.90;;;;;;5017271;28;20216;-71
2022/05/28 09:26:47;;;;;;;3.03;1.10;;;16.90;99.90;;;;;;5034516;28;20200;-70
2022/05/28 09:29:15;;;;;;;3.70;1.20;;;16.90;99.90;;;;;;5033601;28;20197;-71
2022/05/28 09:32:01;;;;;;;4.20;0.98;;;16.90;99.90;;;;;;5017804;28;20174;-70
2022/05/28 09:34:34;;;;;;;1.50;0.70;;;17.00;99.90;;;;;;5026328;28;20262;-70
2022/05/28 09:37:22;;;;;;;2.53;0.90;;;17.00;99.90;;;;;;5042861;28;20181;-70
2022/05/28 09:40:10;;;;;;;1.52;0.77;;;17.10;99.90;;;;;;5031470;28;20181;-71
2022/05/28 09:43:00;;;;;;;1.92;0.80;;;17.20;99.90;;;;;;5020253;28;20186;-70
2022/05/28 09:45:32;;;;;;;3.78;1.10;;;17.30;99.90;;;;;;5041681;28;20216;-70
2022/05/28 09:47:59;;;;;;;1.67;0.70;;;17.40;99.90;;;;;;5041311;28;20228;-71
2022/05/28 09:50:41;;;;;;;3.50;1.27;;;17.50;99.90;;;;;;5041752;28;20200;-71
2022/05/28 09:56:19;;;;;;;3.72;1.08;;;17.60;99.90;;;;;;5039079;28;20169;-72
2022/05/28 09:58:46;;;;;;;2.10;0.82;;;17.70;99.90;;;;;;5036462;28;20567;-71
2022/05/28 10:01:20;;;;;;;2.55;0.90;;;17.90;99.90;;;;;;5041150;28;20181;-71
2022/05/28 10:06:35;;;;;;;3.88;1.00;;;18.10;99.90;;;;;;5038962;28;20236;-71
2022/05/28 10:09:18;;;;;;;2.05;0.98;;;18.10;99.90;;;;;;5038115;28;20236;-69
2022/05/28 10:11:55;;;;;;;3.60;1.17;;;18.10;97.70;;;;;;5021452;28;20166;-70
2022/05/28 10:14:23;;;;;;;2.42;0.80;;;18.30;99.90;;;;;;5021325;28;20227;-69
2022/05/28 10:16:53;;;;;;;2.00;0.73;;;18.30;99.90;;;;;;5021480;28;20170;-71
2022/05/28 10:19:26;;;;;;;2.17;0.70;;;18.30;99.90;;;;;;5021367;28;20185;-71
2022/05/28 10:21:56;;;;;;;2.00;0.85;;;18.30;99.90;;;;;;5037980;28;20229;-71
2022/05/28 10:24:24;;;;;;;1.85;0.73;;;18.20;99.90;;;;;;5040232;28;20197;-71
2022/05/28 10:26:56;;;;;;;4.95;0.75;;;18.30;99.90;;;;;;5040787;28;20327;-71
2022/05/28 10:29:40;;;;;;;3.00;0.98;;;18.30;99.90;;;;;;5041223;28;20246;-71
2022/05/28 10:32:29;;;;;;;3.55;1.08;;;18.30;99.90;;;;;;5040510;28;20193;-71
2022/05/28 10:35:17;;;;;;;2.20;0.82;;;18.50;98.80;;;;;;5049318;28;20224;-70
2022/05/28 10:37:45;;;;;;;2.13;0.93;;;18.70;99.90;;;;;;5037365;28;20198;-71
2022/05/28 10:40:25;;;;;;;2.50;0.82;;;18.80;99.90;;;;;;5021128;28;20173;-71
2022/05/28 10:43:28;;;;;;;1.55;0.73;;;18.90;99.80;;;;;;5020756;28;20174;-70
2022/05/28 10:46:06;;;;;;;3.75;1.10;;;19.00;96.00;;;;;;5037219;28;20269;-70
2022/05/28 10:48:44;;;;;;;1.60;0.77;;;19.20;99.10;;;;;;5020786;28;20200;-71
2022/05/28 10:51:20;;;;;;;4.38;0.90;;;19.40;93.70;;;;;;5035518;28;20199;-70
2022/05/28 10:53:58;;;;;;;2.25;0.82;;;19.50;99.30;;;;;;5040283;28;20161;-70
2022/05/28 10:56:47;;;;;;;4.97;0.95;;;19.70;99.90;;;;;;5040136;28;20232;-70
2022/05/28 10:59:29;;;;;;;1.92;0.70;;;19.80;91.30;;;;;;5023383;28;20178;-70
2022/05/28 11:02:00;;;;;;;1.77;0.70;;;19.90;99.10;;;;;;5023792;28;20205;-70
2022/05/28 11:04:32;;;;;;;2.50;0.98;;;20.10;99.00;;;;;;5040400;28;20225;-70
2022/05/28 11:07:39;;;;;;;1.77;0.73;;;20.20;99.90;;;;;;5039775;28;20216;-69
2022/05/28 11:10:32;;;;;;;3.25;0.85;;;20.40;96.30;;;;;;4960371;28;20176;-70
2022/05/28 11:13:22;;;;;;;1.70;0.60;;;20.40;97.40;;;;;;4960781;28;20219;-70
2022/05/28 11:16:03;;;;;;;2.25;0.65;;;20.40;92.30;;;;;;5030121;28;20177;-71
2022/05/28 11:18:41;;;;;;;2.22;0.65;;;20.40;96.90;;;;;;5040174;28;20221;-70
2022/05/28 11:21:16;;;;;;;2.03;1.00;;;20.40;97.60;;;;;;5039911;28;20169;-71
2022/05/28 11:23:50;;;;;;;1.77;0.70;;;20.50;95.10;;;;;;5039580;28;20239;-71
2022/05/28 11:26:45;;;;;;;2.15;0.73;;;20.60;91.70;;;;;;5039624;28;20173;-70
2022/05/28 11:29:20;;;;;;;3.05;0.93;;;20.70;92.70;;;;;;5057018;28;20154;-71
2022/05/28 11:31:56;;;;;;;1.83;0.70;;;20.70;96.60;;;;;;5057572;28;20404;-70
2022/05/28 11:34:40;;;;;;;3.13;0.80;;;20.60;92.60;;;;;;5077011;28;20171;-70
2022/05/28 11:37:09;;;;;;;2.78;0.70;;;20.40;93.30;;;;;;5059463;28;20229;-71
2022/05/28 11:39:58;;;;;;;1.33;0.70;;;20.30;95.10;;;;;;5052353;28;20242;-70
2022/05/28 11:42:31;;;;;;;2.05;0.63;;;20.40;93.10;;;;;;5055800;28;20236;-71
2022/05/28 11:44:59;;;;;;;2.40;0.73;;;20.40;96.20;;;;;;5025537;28;20236;-71
2022/05/28 11:47:38;;;;;;;0.60;0.50;;;20.40;95.00;;;;;;5034057;28;20208;-70
2022/05/28 11:53:24;;;;;;;2.53;0.82;;;20.20;92.10;;;;;;5036502;28;20201;-70
2022/05/28 11:55:58;;;;;;;2.83;0.88;;;20.10;93.30;;;;;;5038830;28;20257;-70
2022/05/28 11:58:32;;;;;;;1.25;0.50;;;20.20;90.60;;;;;;5044749;28;20197;-70
2022/05/28 12:01:08;;;;;;;2.25;0.70;;;20.30;91.70;;;;;;5019021;28;20203;-71
2022/05/28 12:03:37;;;;;;;2.55;0.80;;;20.40;93.10;;;;;;5038931;28;20189;-71
2022/05/28 12:06:41;;;;;;;0.82;0.50;;;20.60;95.70;;;;;;5035026;28;20426;-70
2022/05/28 12:09:18;;;;;;;2.45;0.82;;;20.80;96.80;;;;;;4944933;28;20185;-69
2022/05/28 12:12:02;;;;;;;2.63;1.00;;;21.00;92.00;;;;;;4937124;29;20173;-69
2022/05/28 12:14:29;;;;;;;2.25;0.70;;;21.20;83.60;;;;;;5005438;28;20197;-70
2022/05/28 12:17:16;;;;;;;2.55;0.60;;;21.30;92.00;;;;;;5055408;28;20256;-70
2022/05/28 12:19:49;;;;;;;1.65;0.70;;;21.40;91.80;;;;;;5035419;28;20198;-70
2022/05/28 12:22:53;;;;;;;2.33;0.90;;;21.60;84.60;;;;;;5054979;28;20197;-69
2022/05/28 12:25:28;;;;;;;2.00;0.68;;;21.70;68.50;;;;;;5035172;28;20206;-71
2022/05/28 12:27:56;;;;;;;2.45;0.80;;;21.80;85.40;;;;;;5030354;28;20291;-70
2022/05/28 12:30:30;;;;;;;2.45;0.70;;;21.90;84.10;;;;;;5038812;28;20166;-70
2022/05/28 12:32:57;;;;;;;2.05;0.90;;;22.10;82.00;;;;;;5049842;28;20197;-71
2022/05/28 12:35:28;;;;;;;1.50;0.88;;;22.10;85.40;;;;;;5043844;28;20267;-70
2022/05/28 12:37:59;;;;;;;1.60;0.68;;;22.20;85.10;;;;;;5031570;28;20240;-70
2022/05/28 12:40:28;;;;;;;3.83;1.00;;;22.20;83.40;;;;;;5018475;28;20166;-69
2022/05/28 12:42:53;;;;;;;2.72;0.80;;;22.10;79.30;;;;;;5024933;28;20215;-69
2022/05/28 12:45:44;;;;;;;2.63;0.85;;;21.90;80.10;;;;;;5038102;28;20212;-70
2022/05/28 12:48:21;;;;;;;1.77;0.70;;;21.70;74.80;;;;;;5037832;28;20464;-70
2022/05/28 12:51:27;;;;;;;2.90;0.70;;;21.60;79.10;;;;;;5037986;28;20193;-70
2022/05/28 12:53:53;;;;;;;2.67;0.98;;;21.80;83.60;;;;;;5055548;28;20173;-70
2022/05/28 12:56:35;;;;;;;2.25;0.60;;;21.90;84.70;;;;;;5037848;28;20197;-70
2022/05/28 12:59:23;;;;;;;1.80;0.80;;;21.80;74.00;;;;;;5038120;28;20184;-70
2022/05/28 13:02:14;;;;;;;2.28;0.80;;;21.60;74.20;;;;;;5037709;28;20376;-71
2022/05/28 13:04:43;;;;;;;2.88;0.90;;;21.40;77.60;;;;;;5054259;28;20212;-69
2022/05/28 13:07:35;;;;;;;2.42;0.77;;;21.20;80.10;;;;;;5037759;28;20215;-72
2022/05/28 13:10:17;;;;;;;1.95;0.90;;;21.10;72.30;;;;;;5018056;28;20174;-70
2022/05/28 13:13:03;;;;;;;1.40;0.88;;;20.90;75.50;;;;;;5032546;28;20188;-70
2022/05/28 13:15:29;;;;;;;1.75;0.63;;;20.90;77.90;;;;;;5032736;28;20181;-70
2022/05/28 13:18:35;;;;;;;2.10;0.93;;;21.00;82.40;;;;;;5035073;28;20181;-71
2022/05/28 13:21:29;;;;;;;2.30;0.90;;;21.10;71.90;;;;;;5037354;28;20185;-70
2022/05/28 13:24:21;;;;;;;1.83;0.70;;;21.20;63.60;;;;;;5030972;28;20197;-71
2022/05/28 13:27:07;;;;;;;3.33;0.80;;;21.40;75.90;;;;;;5006301;28;20229;-71
2022/05/28 13:30:04;;;;;;;1.50;0.90;;;21.50;80.60;;;;;;5017933;28;20174;-70